createdAt,value
2022-11-28T00:02:30.664Z,11.15
2022-11-28T00:05:03.539Z,11.14
2022-11-28T00:07:38.239Z,11.13
2022-11-28T00:10:13.498Z,11.12
2022-11-28T00:12:46.407Z,11.07
2022-11-28T00:15:19.235Z,11.11
2022-11-28T00:17:52.125Z,11.11
2022-11-28T00:20:25.470Z,11.14
2022-11-28T00:22:59.670Z,11.13
2022-11-28T00:25:32.580Z,11.08
2022-11-28T00:28:05.280Z,11.14
2022-11-28T00:30:40.608Z,11.14
2022-11-28T00:33:13.463Z,11.18
2022-11-28T00:35:46.534Z,11.18
2022-11-28T00:38:21.094Z,11.18
2022-11-28T00:40:59.944Z,11.17
2022-11-28T00:43:33.846Z,11.19
2022-11-28T00:46:07.235Z,11.18
2022-11-28T00:48:40.480Z,11.17
2022-11-28T00:51:18.361Z,11.15
2022-11-28T00:53:54.072Z,11.17
2022-11-28T00:56:31.648Z,11.21
2022-11-28T00:59:04.826Z,11.30
2022-11-28T01:01:39.356Z,11.27
2022-11-28T01:04:14.761Z,11.26
2022-11-28T01:06:49.968Z,11.32
2022-11-28T01:09:25.304Z,11.32
2022-11-28T01:11:58.376Z,11.27
2022-11-28T01:14:31.342Z,11.34
2022-11-28T01:17:04.042Z,11.34
2022-11-28T01:19:37.436Z,11.42
2022-11-28T01:22:10.428Z,11.41
2022-11-28T01:24:46.722Z,11.38
2022-11-28T01:27:19.772Z,11.35
2022-11-28T01:29:52.821Z,11.44
2022-11-28T01:32:26.048Z,11.39
2022-11-28T01:34:59.311Z,11.37
2022-11-28T01:37:32.166Z,11.56
2022-11-28T01:40:08.166Z,11.58
2022-11-28T01:42:41.093Z,11.56
2022-11-28T01:45:19.785Z,11.52
2022-11-28T01:47:59.200Z,11.60
2022-11-28T01:50:36.129Z,11.54
2022-11-28T01:53:12.654Z,11.62
2022-11-28T01:55:54.062Z,11.65
2022-11-28T01:58:27.384Z,11.63
2022-11-28T02:01:00.983Z,11.59
2022-11-28T02:03:41.768Z,11.61
2022-11-28T02:06:18.547Z,11.63
2022-11-28T02:08:52.191Z,11.59
2022-11-28T02:11:50.956Z,11.66
2022-11-28T02:14:42.689Z,11.66
2022-11-28T02:17:22.800Z,11.59
2022-11-28T02:20:33.306Z,11.60
2022-11-28T02:23:13.719Z,11.63
2022-11-28T02:26:19.866Z,11.60
2022-11-28T02:29:16.127Z,11.68
2022-11-28T02:32:13.335Z,11.59
2022-11-28T02:34:54.764Z,11.62
2022-11-28T02:37:35.744Z,11.66
2022-11-28T02:40:14.930Z,11.69
2022-11-28T02:42:59.709Z,11.66
2022-11-28T02:45:38.870Z,11.82
2022-11-28T02:48:18.998Z,11.75
2022-11-28T02:50:59.591Z,11.80
2022-11-28T02:53:35.042Z,11.77
2022-11-28T02:56:11.593Z,11.78
2022-11-28T02:58:44.782Z,11.82
2022-11-28T03:01:21.934Z,11.76
2022-11-28T03:04:13.859Z,11.72
2022-11-28T03:06:58.408Z,11.70
2022-11-28T03:09:47.283Z,11.78
2022-11-28T03:12:26.323Z,11.85
2022-11-28T03:15:02.897Z,11.87
2022-11-28T03:17:49.354Z,11.89
2022-11-28T03:20:29.408Z,11.88
2022-11-28T03:23:14.283Z,11.95
2022-11-28T03:25:57.213Z,11.93
2022-11-28T03:28:39.270Z,11.94
2022-11-28T03:31:18.940Z,11.89
2022-11-28T03:33:55.091Z,11.91
2022-11-28T03:36:32.882Z,11.88
2022-11-28T03:39:10.362Z,11.91
2022-11-28T03:41:49.751Z,11.97
2022-11-28T03:44:28.164Z,11.93
2022-11-28T03:47:03.602Z,12.02
2022-11-28T03:49:40.257Z,12.04
2022-11-28T03:52:19.434Z,12.11
2022-11-28T03:54:56.505Z,12.17
2022-11-28T03:57:35.618Z,12.09
2022-11-28T04:00:12.931Z,12.12
2022-11-28T04:02:53.902Z,12.01
2022-11-28T04:05:33.813Z,11.89
2022-11-28T04:08:15.604Z,11.97
2022-11-28T04:10:57.604Z,11.86
2022-11-28T04:13:34.170Z,12.02
2022-11-28T04:16:13.949Z,12.06
2022-11-28T04:18:53.884Z,11.94
2022-11-28T04:21:32.016Z,11.97
2022-11-28T04:24:10.069Z,12.02
2022-11-28T04:26:48.782Z,11.98
2022-11-28T04:29:24.451Z,11.88
2022-11-28T04:31:59.949Z,11.93
2022-11-28T04:34:35.767Z,12.01
2022-11-28T04:37:10.139Z,11.97
2022-11-28T04:39:48.484Z,11.95
2022-11-28T04:42:24.541Z,11.93
2022-11-28T04:45:02.421Z,11.96
2022-11-28T04:47:35.454Z,11.88
2022-11-28T04:50:09.630Z,11.95
2022-11-28T04:52:50.373Z,11.97
2022-11-28T04:55:32.036Z,11.93
2022-11-28T04:58:12.436Z,11.97
2022-11-28T05:00:47.228Z,12.11
2022-11-28T05:03:20.462Z,12.03
2022-11-28T05:05:53.884Z,12.03
2022-11-28T05:08:26.841Z,12.07
2022-11-28T05:11:01.067Z,12.13
2022-11-28T05:13:34.042Z,12.07
2022-11-28T05:16:07.236Z,12.11
2022-11-28T05:18:40.078Z,12.10
2022-11-28T05:21:14.126Z,12.13
2022-11-28T05:23:47.539Z,12.07
2022-11-28T05:26:22.601Z,12.01
2022-11-28T05:28:57.082Z,12.05
2022-11-28T05:31:30.640Z,12.14
2022-11-28T05:34:03.528Z,12.11
2022-11-28T05:36:36.419Z,12.10
2022-11-28T05:39:09.276Z,11.98
2022-11-28T05:41:43.665Z,12.00
2022-11-28T05:44:16.463Z,12.03
2022-11-28T05:46:50.623Z,12.06
2022-11-28T05:49:24.071Z,12.06
2022-11-28T05:51:57.324Z,12.20
2022-11-28T05:54:30.586Z,12.15
2022-11-28T05:57:06.667Z,12.20
2022-11-28T05:59:39.462Z,12.24
2022-11-28T06:02:12.416Z,12.02
2022-11-28T06:04:45.552Z,12.08
2022-11-28T06:07:18.922Z,12.05
2022-11-28T06:09:51.908Z,12.09
2022-11-28T06:12:26.345Z,12.07
2022-11-28T06:14:59.185Z,12.09
2022-11-28T06:17:32.563Z,12.04
2022-11-28T06:20:07.629Z,12.09
2022-11-28T06:22:40.684Z,12.13
2022-11-28T06:25:13.438Z,12.13
2022-11-28T06:27:47.636Z,12.08
2022-11-28T06:30:21.518Z,12.14
2022-11-28T06:32:56.062Z,12.09
2022-11-28T06:35:30.702Z,12.08
2022-11-28T06:38:11.442Z,12.09
2022-11-28T06:40:47.333Z,12.03
2022-11-28T06:43:23.391Z,12.11
2022-11-28T06:46:01.525Z,12.03
2022-11-28T06:48:43.633Z,12.15
2022-11-28T06:51:18.144Z,12.11
2022-11-28T06:53:52.771Z,12.06
2022-11-28T06:56:33.307Z,12.07
2022-11-28T06:59:08.184Z,12.13
2022-11-28T07:01:46.255Z,12.11
2022-11-28T07:04:20.617Z,12.06
2022-11-28T07:06:56.134Z,12.12
2022-11-28T07:09:32.972Z,12.10
2022-11-28T07:12:07.860Z,12.06
2022-11-28T07:14:43.444Z,12.06
2022-11-28T07:17:21.521Z,12.11
2022-11-28T07:20:04.318Z,12.12
2022-11-28T07:22:39.565Z,12.07
2022-11-28T07:25:14.241Z,12.08
2022-11-28T07:27:49.182Z,12.13
2022-11-28T07:30:24.149Z,12.13
2022-11-28T07:32:57.602Z,12.14
2022-11-28T07:35:31.584Z,12.12
2022-11-28T07:38:06.262Z,12.12
2022-11-28T07:40:39.629Z,12.18
2022-11-28T07:43:13.356Z,12.23
2022-11-28T07:46:00.686Z,12.15
2022-11-28T07:48:36.021Z,12.21
2022-11-28T07:51:11.150Z,12.15
2022-11-28T07:53:47.359Z,12.33
2022-11-28T07:56:39.389Z,12.00
2022-11-28T07:59:23.097Z,12.03
2022-11-28T08:01:58.193Z,12.11
2022-11-28T08:04:33.004Z,12.10
2022-11-28T08:07:06.967Z,12.15
2022-11-28T08:09:44.585Z,12.18
2022-11-28T08:12:17.986Z,12.27
2022-11-28T08:14:51.386Z,12.37
2022-11-28T08:17:25.857Z,12.52
2022-11-28T08:19:59.988Z,12.51
2022-11-28T08:22:34.747Z,12.51
2022-11-28T08:25:10.841Z,12.53
2022-11-28T08:27:46.393Z,12.54
2022-11-28T08:30:20.546Z,12.59
2022-11-28T08:32:57.579Z,12.51
2022-11-28T08:35:33.495Z,12.54
2022-11-28T08:38:07.555Z,12.59
2022-11-28T08:40:40.556Z,12.58
2022-11-28T08:43:13.465Z,12.62
2022-11-28T08:45:49.600Z,12.64
2022-11-28T08:48:27.191Z,12.66
2022-11-28T08:51:00.986Z,12.67
2022-11-28T08:53:39.940Z,12.71
2022-11-28T08:56:14.486Z,12.67
2022-11-28T08:58:47.672Z,12.68
2022-11-28T09:01:23.915Z,12.76
2022-11-28T09:04:00.527Z,12.78
2022-11-28T09:06:34.499Z,12.72
2022-11-28T09:09:09.312Z,12.76
2022-11-28T09:11:42.683Z,12.77
2022-11-28T09:14:16.329Z,12.83
2022-11-28T09:16:52.960Z,12.83
2022-11-28T09:19:28.135Z,12.80
2022-11-28T09:22:01.777Z,12.85
2022-11-28T09:24:35.068Z,12.81
2022-11-28T09:27:08.101Z,12.90
2022-11-28T09:29:42.853Z,12.93
2022-11-28T09:32:16.647Z,12.99
2022-11-28T09:34:51.825Z,12.95
2022-11-28T09:37:26.554Z,13.02
2022-11-28T09:40:17.198Z,12.97
2022-11-28T09:43:02.759Z,13.12
2022-11-28T09:45:40.013Z,13.05
2022-11-28T09:48:26.773Z,13.21
2022-11-28T09:51:07.084Z,13.18
2022-11-28T09:53:48.087Z,13.17
2022-11-28T09:56:25.406Z,13.15
2022-11-28T09:59:04.892Z,13.08
2022-11-28T10:01:45.533Z,13.10
2022-11-28T10:04:32.074Z,13.11
2022-11-28T10:07:16.644Z,13.15
2022-11-28T10:10:02.072Z,13.18
2022-11-28T10:13:03.395Z,13.16
2022-11-28T10:15:46.041Z,13.26
2022-11-28T10:18:52.599Z,13.26
2022-11-28T10:21:35.350Z,13.30
2022-11-28T10:24:19.163Z,13.37
2022-11-28T10:27:00.693Z,13.40
2022-11-28T10:29:44.857Z,13.41
2022-11-28T10:32:25.292Z,13.43
2022-11-28T10:35:05.389Z,13.47
2022-11-28T10:37:40.446Z,13.50
2022-11-28T10:40:26.935Z,13.49
2022-11-28T10:43:03.684Z,13.51
2022-11-28T10:45:47.661Z,13.50
2022-11-28T10:48:40.987Z,13.52
2022-11-28T10:51:31.302Z,13.52
2022-11-28T10:54:21.972Z,13.55
2022-11-28T10:57:07.561Z,13.54
2022-11-28T10:59:57.760Z,13.55
2022-11-28T11:02:37.477Z,13.56
2022-11-28T11:05:14.479Z,13.55
2022-11-28T11:07:51.346Z,13.63
2022-11-28T11:10:34.607Z,13.59
2022-11-28T11:13:19.722Z,13.64
2022-11-28T11:15:59.838Z,13.69
2022-11-28T11:18:53.274Z,13.69
2022-11-28T11:21:28.272Z,13.70
2022-11-28T11:24:14.436Z,13.72
2022-11-28T11:26:49.945Z,13.77
2022-11-28T11:29:31.805Z,13.80
2022-11-28T11:32:07.760Z,13.76
2022-11-28T11:34:47.059Z,13.76
2022-11-28T11:37:31.467Z,13.80
2022-11-28T11:40:22.075Z,13.81
2022-11-28T11:42:58.178Z,13.82
2022-11-28T11:45:35.179Z,13.83
2022-11-28T11:48:13.740Z,13.84
2022-11-28T11:50:55.982Z,13.84
2022-11-28T11:53:28.972Z,13.88
2022-11-28T11:56:03.616Z,13.97
2022-11-28T11:58:44.307Z,14.10
2022-11-28T12:01:22.266Z,14.06
2022-11-28T12:04:08.502Z,14.16
2022-11-28T12:06:54.714Z,14.24
2022-11-28T12:09:32.366Z,14.26
2022-11-28T12:12:15.107Z,14.40
2022-11-28T12:14:50.891Z,14.38
2022-11-28T12:17:53.407Z,14.36
2022-11-28T12:20:46.394Z,14.42
2022-11-28T12:23:44.935Z,14.45
2022-11-28T12:26:23.809Z,14.38
2022-11-28T12:29:36.552Z,14.38
2022-11-28T12:32:26.446Z,14.34
2022-11-28T12:35:19.953Z,14.30
2022-11-28T12:38:11.729Z,14.33
2022-11-28T12:40:57.212Z,14.32
2022-11-28T12:43:43.533Z,14.24
2022-11-28T12:46:25.285Z,14.28
2022-11-28T12:49:14.373Z,14.22
2022-11-28T12:52:04.420Z,14.29
2022-11-28T12:55:09.564Z,14.31
2022-11-28T12:57:48.362Z,14.32
2022-11-28T13:00:24.193Z,14.22
2022-11-28T13:03:12.737Z,14.19
2022-11-28T13:05:57.308Z,14.17
2022-11-28T13:08:52.648Z,14.13
2022-11-28T13:11:46.111Z,14.11
2022-11-28T13:14:26.195Z,14.19
2022-11-28T13:17:07.585Z,14.17
2022-11-28T13:19:49.962Z,14.05
2022-11-28T13:22:25.687Z,14.04
2022-11-28T13:25:11.039Z,14.04
2022-11-28T13:27:49.977Z,13.96
2022-11-28T13:30:26.097Z,14.04
2022-11-28T13:33:04.416Z,14.01
2022-11-28T13:35:38.604Z,13.99
2022-11-28T13:38:37.250Z,14.03
2022-11-28T13:41:52.722Z,13.97
2022-11-28T13:44:20.032Z,14.02
2022-11-28T13:46:53.588Z,14.02
2022-11-28T13:49:29.602Z,14.03
2022-11-28T13:52:33.088Z,14.08
2022-11-28T13:55:06.423Z,14.01
2022-11-28T13:57:40.594Z,13.99
2022-11-28T14:00:23.718Z,13.96
2022-11-28T14:03:00.045Z,13.95
2022-11-28T14:05:36.404Z,13.94
2022-11-28T14:08:09.914Z,13.94
2022-11-28T14:11:27.731Z,13.93
2022-11-28T14:14:47.404Z,13.93
2022-11-28T14:17:39.859Z,13.89
2022-11-28T14:20:26.213Z,13.88
2022-11-28T14:23:18.435Z,13.93
2022-11-28T14:25:55.818Z,13.94
2022-11-28T14:28:37.102Z,13.94
2022-11-28T14:31:26.140Z,13.93
2022-11-28T14:34:03.646Z,13.93
2022-11-28T14:36:42.197Z,13.92
2022-11-28T14:39:36.326Z,13.91
2022-11-28T14:45:44.599Z,13.80
2022-11-28T14:48:21.757Z,13.79
2022-11-28T14:51:01.314Z,13.78
2022-11-28T14:53:48.179Z,13.76
2022-11-28T14:56:29.495Z,13.74
2022-11-28T14:59:04.512Z,13.70
2022-11-28T15:01:53.965Z,13.68
2022-11-28T15:04:52.048Z,13.59
2022-11-28T15:07:36.650Z,13.52
2022-11-28T15:10:15.769Z,13.48
2022-11-28T15:13:02.452Z,13.41
2022-11-28T15:15:36.111Z,13.42
2022-11-28T15:18:12.401Z,13.39
2022-11-28T15:20:53.832Z,13.38
2022-11-28T15:23:32.190Z,13.33
2022-11-28T15:26:07.069Z,13.39
2022-11-28T15:28:40.066Z,13.31
2022-11-28T15:31:22.849Z,13.31
2022-11-28T15:34:00.813Z,13.21
2022-11-28T15:36:34.897Z,13.19
2022-11-28T15:39:31.230Z,13.17
2022-11-28T15:42:10.548Z,13.23
2022-11-28T15:44:45.347Z,13.20
2022-11-28T15:47:26.573Z,13.17
2022-11-28T15:50:17.205Z,13.19
2022-11-28T15:52:58.533Z,13.22
2022-11-28T15:55:37.234Z,13.30
2022-11-28T15:58:21.048Z,13.25
2022-11-28T16:01:00.529Z,13.26
2022-11-28T16:03:41.352Z,13.26
2022-11-28T16:06:14.962Z,13.30
2022-11-28T16:08:54.224Z,13.27
2022-11-28T16:11:30.837Z,13.28
2022-11-28T16:14:10.242Z,13.30
2022-11-28T16:16:43.803Z,13.28
2022-11-28T16:19:25.198Z,13.31
2022-11-28T16:22:03.418Z,13.25
2022-11-28T16:24:46.428Z,13.26
2022-11-28T16:27:38.293Z,13.24
2022-11-28T16:30:30.316Z,13.20
2022-11-28T16:33:04.975Z,13.21
2022-11-28T16:35:41.701Z,13.25
2022-11-28T16:38:17.723Z,13.25
2022-11-28T16:40:51.105Z,13.24
2022-11-28T16:43:32.451Z,13.25
2022-11-28T16:46:10.377Z,13.19
2022-11-28T16:48:49.554Z,13.18
2022-11-28T16:51:40.519Z,13.13
2022-11-28T16:54:31.434Z,13.13
2022-11-28T16:57:16.041Z,13.09
2022-11-28T16:59:53.169Z,13.10
2022-11-28T17:02:27.282Z,13.08
2022-11-28T17:05:00.478Z,13.11
2022-11-28T17:07:35.576Z,13.02
2022-11-28T17:10:13.045Z,13.03
2022-11-28T17:12:48.035Z,12.93
2022-11-28T17:15:31.937Z,12.90
2022-11-28T17:18:38.589Z,12.79
2022-11-28T17:21:15.599Z,12.90
2022-11-28T17:23:49.255Z,12.89
2022-11-28T17:26:22.681Z,12.79
2022-11-28T17:28:56.263Z,12.81
2022-11-28T17:31:35.965Z,12.88
2022-11-28T17:34:15.242Z,12.82
2022-11-28T17:36:48.902Z,12.72
2022-11-28T17:39:22.260Z,12.64
2022-11-28T17:41:56.994Z,12.63
2022-11-28T17:44:32.381Z,12.80
2022-11-28T17:47:07.377Z,12.69
2022-11-28T17:49:46.132Z,12.54
2022-11-28T17:52:21.152Z,12.67
2022-11-28T17:55:00.859Z,12.57
2022-11-28T17:57:38.134Z,12.64
2022-11-28T18:00:13.925Z,12.66
2022-11-28T18:02:49.180Z,12.63
2022-11-28T18:05:22.442Z,12.57
2022-11-28T18:07:56.005Z,12.58
2022-11-28T18:10:29.352Z,12.55
2022-11-28T18:13:08.308Z,12.60
2022-11-28T18:15:43.763Z,12.60
2022-11-28T18:18:18.141Z,12.63
2022-11-28T18:20:53.148Z,12.57
2022-11-28T18:23:26.360Z,12.47
2022-11-28T18:25:59.503Z,12.39
2022-11-28T18:28:33.195Z,12.50
2022-11-28T18:31:11.562Z,12.49
2022-11-28T18:33:47.416Z,12.38
2022-11-28T18:36:22.955Z,12.40
2022-11-28T18:38:57.007Z,12.45
2022-11-28T18:41:31.653Z,12.39
2022-11-28T18:44:05.936Z,12.50
2022-11-28T18:46:40.103Z,12.45
2022-11-28T18:49:19.090Z,12.36
2022-11-28T18:51:52.456Z,12.44
2022-11-28T18:54:27.436Z,12.43
2022-11-28T18:57:00.690Z,12.50
2022-11-28T18:59:34.391Z,12.35
2022-11-28T19:02:14.119Z,12.30
2022-11-28T19:04:48.291Z,12.26
2022-11-28T19:07:22.248Z,12.36
2022-11-28T19:09:55.668Z,12.30
2022-11-28T19:12:31.544Z,12.28
2022-11-28T19:15:05.016Z,12.25
2022-11-28T19:17:38.841Z,12.30
2022-11-28T19:20:13.815Z,12.14
2022-11-28T19:22:49.798Z,12.12
2022-11-28T19:25:23.345Z,12.15
2022-11-28T19:27:56.545Z,12.21
2022-11-28T19:30:29.780Z,12.13
2022-11-28T19:33:05.847Z,12.16
2022-11-28T19:35:40.249Z,12.11
2022-11-28T19:38:14.429Z,12.08
2022-11-28T19:40:50.592Z,12.02
2022-11-28T19:43:25.171Z,12.04
2022-11-28T19:45:59.270Z,12.02
2022-11-28T19:48:35.044Z,11.98
2022-11-28T19:51:10.766Z,12.07
2022-11-28T19:53:45.871Z,11.91
2022-11-28T19:56:22.622Z,11.95
2022-11-28T19:58:57.396Z,11.96
2022-11-28T20:01:30.718Z,11.91
2022-11-28T20:04:03.554Z,11.94
2022-11-28T20:06:46.814Z,11.87
2022-11-28T20:09:35.980Z,11.85
2022-11-28T20:12:10.402Z,11.86
2022-11-28T20:14:43.577Z,11.86
2022-11-28T20:17:17.871Z,11.85
2022-11-28T20:19:53.915Z,11.83
2022-11-28T20:22:30.935Z,11.76
2022-11-28T20:25:08.656Z,11.72
2022-11-28T20:27:42.010Z,11.67
2022-11-28T20:30:16.735Z,11.59
2022-11-28T20:32:50.512Z,11.65
2022-11-28T20:35:26.746Z,11.65
2022-11-28T20:38:01.235Z,11.66
2022-11-28T20:40:35.091Z,11.78
2022-11-28T20:43:07.779Z,11.65
2022-11-28T20:45:42.598Z,11.60
2022-11-28T20:48:15.877Z,11.48
2022-11-28T20:50:49.445Z,11.53
2022-11-28T20:53:26.942Z,11.55
2022-11-28T20:56:01.987Z,11.51
2022-11-28T20:58:35.166Z,11.51
2022-11-28T21:01:14.258Z,11.46
2022-11-28T21:03:48.090Z,11.47
2022-11-28T21:06:26.224Z,11.47
2022-11-28T21:09:01.173Z,11.37
2022-11-28T21:11:56.122Z,11.38
2022-11-28T21:14:30.961Z,11.33
2022-11-28T21:17:09.395Z,11.33
2022-11-28T21:19:48.615Z,11.42
2022-11-28T21:22:25.596Z,11.33
2022-11-28T21:25:04.127Z,11.28
2022-11-28T21:27:46.625Z,11.39
2022-11-28T21:30:19.623Z,11.42
2022-11-28T21:32:52.374Z,11.33
2022-11-28T21:35:25.488Z,11.32
2022-11-28T21:37:58.731Z,11.31
2022-11-28T21:40:35.597Z,11.46
2022-11-28T21:43:08.576Z,11.38
2022-11-28T21:45:44.739Z,11.39
2022-11-28T21:48:19.213Z,11.33
2022-11-28T21:50:52.648Z,11.34
2022-11-28T21:53:27.162Z,11.41
2022-11-28T21:56:02.708Z,11.28
2022-11-28T21:58:42.344Z,11.31
2022-11-28T22:01:20.324Z,11.32
2022-11-28T22:03:59.140Z,11.08
2022-11-28T22:06:35.173Z,11.12
2022-11-28T22:09:09.848Z,11.19
2022-11-28T22:11:46.402Z,11.13
2022-11-28T22:14:36.498Z,11.11
2022-11-28T22:17:10.380Z,11.11
2022-11-28T22:19:43.839Z,11.09
2022-11-28T22:22:19.267Z,11.05
2022-11-28T22:24:52.206Z,11.00
2022-11-28T22:27:31.483Z,11.02
2022-11-28T22:30:05.422Z,10.97
2022-11-28T22:32:41.785Z,10.97
2022-11-28T22:35:14.792Z,11.10
2022-11-28T22:37:54.275Z,11.05
2022-11-28T22:40:27.418Z,10.95
2022-11-28T22:43:03.559Z,10.96
2022-11-28T22:48:34.497Z,10.98
2022-11-28T22:51:11.484Z,10.92
2022-11-28T22:53:45.485Z,10.86
2022-11-28T22:56:20.086Z,10.90
2022-11-28T22:58:56.631Z,10.85
2022-11-28T23:01:38.355Z,10.89
2022-11-28T23:04:12.270Z,10.86
2022-11-28T23:06:45.800Z,10.73
2022-11-28T23:09:22.157Z,10.87
2022-11-28T23:11:56.476Z,10.84
2022-11-28T23:14:31.648Z,10.76
2022-11-28T23:17:05.103Z,10.78
2022-11-28T23:20:05.410Z,10.75
2022-11-28T23:22:38.834Z,10.69
2022-11-28T23:25:12.374Z,10.77
2022-11-28T23:27:48.556Z,10.75
2022-11-28T23:30:25.345Z,10.81
2022-11-28T23:32:58.296Z,10.77
2022-11-28T23:35:31.170Z,10.72
2022-11-28T23:38:04.169Z,10.76
2022-11-28T23:40:37.224Z,10.75
2022-11-28T23:43:10.318Z,10.70
2022-11-28T23:45:44.633Z,10.72
2022-11-28T23:48:18.513Z,10.68
2022-11-28T23:50:51.399Z,10.68
2022-11-28T23:53:24.385Z,10.72
2022-11-28T23:56:14.289Z,10.70
2022-11-28T23:58:49.173Z,10.67
